Terminal Aerodrome Forecast
Issued by NWS

Home | Current Version | Previous Version | Graphics & Text | Print | Product List | Glossary On
Versions: 1 2 3 4 5 6 7 8 9 10 11 12 13 14 15
000
FTUS43 KGRB 241854 AAA
TAFAUW
TAF AMD
KAUW 241854Z 2419/2518 24009KT P6SM SCT012 BKN023
      TEMPO 2419/2420 5SM BR
     FM242000 26008KT P6SM BKN030
     FM250100 28004KT P6SM SCT120 BKN200
     FM251500 27010KT P6SM SCT250=

USA.gov is the U.S. government's official web portal to all federal, state and local government web resources and services.